BAW2064 FIMP-EGKK
Flight info
| Callsign | BAW2064 |
|---|---|
| Flight time | N/A |
| Altitude | 32000 |
| Route | NIBIS2A NIBIS UG661 DV UA401 IMKIX/N0490F340 UA401 NN UW325 SIPKI/N0489F330 UT325 EDAGA/N0485F350 UT325 POGBA/N0485F340 UT325 VOVIK/N0482F360 UT325 FL UM731 DIR UB730 DJA UM2 TARAT/N0469F380 UM2 CSO/N0462F370 DCT CIRTA/N0463F380 DCT BUKID DCT GARPU DCT PIGOS DCT BARSO DCT OKTET DCT GIPNO DCT BULOL DCT IDAVO DCT BAGBI DCT SIZZA DCT LAULY DCT BRY DCT CLM DCT KOPOR DCT KESAX DCT KUNAV KUNAV1G |
| Aircraft | B772/H-SDE1E3FGHIJ3J5J6M1M2P2RWXYZ/LB1D1 |
Departure
| Time | 2026-05-05 20:02 |
|---|---|
| Airport | Sir Seewoosagur Ramgoolam International Airport (FIMP) |
Arrival
| Time | N/A |
|---|---|
| Airport | London Gatwick Airport (EGKK) |
| Time | Latitude | Longitude | Altitude | Speed | Heading |
|---|---|---|---|---|---|
| 2026-05-05 19:25 | -20.43166 | 57.67850 | 202 ft | 0 kts | 212° |
| 2026-05-05 19:50 | -20.43162 | 57.67853 | 209 ft | 3 kts | 212° |
| 2026-05-05 19:51 | -20.43144 | 57.67864 | 206 ft | 3 kts | 212° |
| 2026-05-05 19:51 | -20.43127 | 57.67876 | 206 ft | 3 kts | 212° |
| 2026-05-05 19:51 | -20.43112 | 57.67885 | 206 ft | 3 kts | 194° |
| 2026-05-05 19:51 | -20.43095 | 57.67886 | 206 ft | 3 kts | 154° |
| 2026-05-05 19:52 | -20.43078 | 57.67874 | 206 ft | 3 kts | 133° |
| 2026-05-05 19:52 | -20.43066 | 57.67858 | 206 ft | 3 kts | 120° |
| 2026-05-05 19:52 | -20.43062 | 57.67852 | 206 ft | 0 kts | 117° |
| 2026-05-05 19:54 | -20.43063 | 57.67853 | 190 ft | 1 kts | 117° |
| 2026-05-05 19:54 | -20.43071 | 57.67870 | 195 ft | 4 kts | 117° |
| 2026-05-05 19:55 | -20.43090 | 57.67910 | 202 ft | 7 kts | 117° |
| 2026-05-05 19:55 | -20.43114 | 57.67958 | 203 ft | 7 kts | 117° |
| 2026-05-05 19:55 | -20.43137 | 57.68007 | 203 ft | 7 kts | 117° |
| 2026-05-05 19:55 | -20.43160 | 57.68056 | 202 ft | 7 kts | 112° |
| 2026-05-05 19:56 | -20.43145 | 57.68105 | 192 ft | 7 kts | 39° |
| 2026-05-05 19:56 | -20.43099 | 57.68097 | 199 ft | 7 kts | 316° |
| 2026-05-05 19:56 | -20.43072 | 57.68048 | 199 ft | 8 kts | 298° |
| 2026-05-05 19:56 | -20.43047 | 57.67998 | 199 ft | 8 kts | 297° |
| 2026-05-05 19:57 | -20.43023 | 57.67947 | 206 ft | 8 kts | 297° |
| 2026-05-05 19:57 | -20.42998 | 57.67897 | 197 ft | 8 kts | 297° |
| 2026-05-05 19:57 | -20.42973 | 57.67846 | 201 ft | 8 kts | 297° |
| 2026-05-05 19:57 | -20.42944 | 57.67786 | 200 ft | 11 kts | 297° |
| 2026-05-05 19:58 | -20.42905 | 57.67707 | 206 ft | 13 kts | 297° |
| 2026-05-05 19:58 | -20.42859 | 57.67613 | 203 ft | 15 kts | 298° |
| 2026-05-05 19:58 | -20.42789 | 57.67537 | 202 ft | 15 kts | 322° |
| 2026-05-05 19:58 | -20.42702 | 57.67482 | 203 ft | 15 kts | 340° |
| 2026-05-05 19:59 | -20.42608 | 57.67447 | 206 ft | 15 kts | 334° |
| 2026-05-05 19:59 | -20.42547 | 57.67363 | 209 ft | 15 kts | 296° |
| 2026-05-05 19:59 | -20.42500 | 57.67268 | 209 ft | 15 kts | 297° |
| 2026-05-05 19:59 | -20.42455 | 57.67172 | 216 ft | 13 kts | 296° |
| 2026-05-05 20:00 | -20.42431 | 57.67096 | 214 ft | 11 kts | 274° |
| 2026-05-05 20:00 | -20.42435 | 57.67019 | 218 ft | 10 kts | 267° |
| 2026-05-05 20:00 | -20.42420 | 57.66953 | 215 ft | 7 kts | 295° |
| 2026-05-05 20:00 | -20.42381 | 57.66934 | 219 ft | 7 kts | 11° |
| 2026-05-05 20:01 | -20.42363 | 57.66976 | 220 ft | 7 kts | 98° |
| 2026-05-05 20:01 | -20.42373 | 57.67001 | 216 ft | 1 kts | 116° |
| 2026-05-05 20:01 | -20.42428 | 57.67118 | 217 ft | 53 kts | 117° |
| 2026-05-05 20:02 | -20.42724 | 57.67730 | 206 ft | 131 kts | 117° |
| 2026-05-05 20:02 | -20.43243 | 57.68810 | 223 ft | 192 kts | 116° |
| 2026-05-05 20:02 | -20.43863 | 57.70090 | 1031 ft | 195 kts | 115° |
| 2026-05-05 20:02 | -20.44486 | 57.71396 | 1799 ft | 206 kts | 115° |
| 2026-05-05 20:03 | -20.45164 | 57.72813 | 1985 ft | 221 kts | 120° |
| 2026-05-05 20:03 | -20.46319 | 57.73982 | 2106 ft | 243 kts | 154° |
| 2026-05-05 20:03 | -20.48033 | 57.74284 | 2437 ft | 260 kts | 186° |
| 2026-05-05 20:03 | -20.49751 | 57.73595 | 2864 ft | 273 kts | 215° |
| 2026-05-05 20:04 | -20.51105 | 57.72168 | 3433 ft | 276 kts | 229° |
| 2026-05-05 20:04 | -20.52286 | 57.70535 | 4000 ft | 280 kts | 232° |
| 2026-05-05 20:04 | -20.53449 | 57.68852 | 4558 ft | 284 kts | 233° |
| 2026-05-05 20:04 | -20.54609 | 57.67174 | 5155 ft | 286 kts | 232° |
| 2026-05-05 20:05 | -20.55799 | 57.65474 | 5779 ft | 287 kts | 232° |
| 2026-05-05 20:05 | -20.57010 | 57.63761 | 6331 ft | 289 kts | 232° |
| 2026-05-05 20:05 | -20.58232 | 57.62046 | 6881 ft | 292 kts | 232° |
| 2026-05-05 20:05 | -20.59469 | 57.60321 | 7436 ft | 293 kts | 232° |
| 2026-05-05 20:06 | -20.60715 | 57.58590 | 7989 ft | 294 kts | 232° |
| 2026-05-05 20:06 | -20.61965 | 57.56853 | 8519 ft | 297 kts | 232° |
| 2026-05-05 20:06 | -20.63228 | 57.55095 | 9022 ft | 298 kts | 233° |
| 2026-05-05 20:06 | -20.64116 | 57.53110 | 9450 ft | 300 kts | 261° |
| 2026-05-05 20:07 | -20.64033 | 57.50899 | 9947 ft | 298 kts | 283° |
| 2026-05-05 20:07 | -20.63558 | 57.48719 | 10221 ft | 308 kts | 283° |
| 2026-05-05 20:07 | -20.63073 | 57.46422 | 10361 ft | 326 kts | 283° |
| 2026-05-05 20:07 | -20.62567 | 57.43994 | 10504 ft | 345 kts | 282° |
| 2026-05-05 20:08 | -20.62026 | 57.41433 | 10603 ft | 360 kts | 285° |
| 2026-05-05 20:08 | -20.61030 | 57.38953 | 10677 ft | 370 kts | 304° |
| 2026-05-05 20:08 | -20.59461 | 57.36724 | 10850 ft | 382 kts | 308° |
| 2026-05-05 20:08 | -20.57853 | 57.34420 | 11330 ft | 389 kts | 306° |
| 2026-05-05 20:09 | -20.56275 | 57.32064 | 11962 ft | 392 kts | 306° |
| 2026-05-05 20:09 | -20.54689 | 57.29657 | 12436 ft | 400 kts | 306° |
| 2026-05-05 20:09 | -20.53084 | 57.27215 | 13031 ft | 404 kts | 306° |
| 2026-05-05 20:09 | -20.51487 | 57.24784 | 13646 ft | 408 kts | 306° |
| 2026-05-05 20:10 | -20.49847 | 57.22294 | 14163 ft | 412 kts | 306° |
| 2026-05-05 20:10 | -20.48196 | 57.19788 | 14796 ft | 413 kts | 306° |
| 2026-05-05 20:10 | -20.46484 | 57.17320 | 15335 ft | 416 kts | 310° |
| 2026-05-05 20:10 | -20.44537 | 57.15009 | 15828 ft | 421 kts | 314° |
| 2026-05-05 20:11 | -20.42487 | 57.12760 | 16491 ft | 421 kts | 314° |
| 2026-05-05 20:11 | -20.40447 | 57.10526 | 17221 ft | 421 kts | 313° |
| 2026-05-05 20:11 | -20.38420 | 57.08251 | 17791 ft | 425 kts | 313° |
| 2026-05-05 20:11 | -20.36400 | 57.05936 | 18366 ft | 429 kts | 312° |
| 2026-05-05 20:12 | -20.34364 | 57.03587 | 18813 ft | 434 kts | 312° |
| 2026-05-05 20:12 | -20.32305 | 57.01210 | 19345 ft | 437 kts | 312° |
| 2026-05-05 20:12 | -20.30237 | 56.98827 | 19869 ft | 440 kts | 312° |
| 2026-05-05 20:12 | -20.28151 | 56.96428 | 20392 ft | 443 kts | 312° |
| 2026-05-05 20:13 | -20.26055 | 56.94020 | 20975 ft | 445 kts | 312° |
| 2026-05-05 20:13 | -20.23944 | 56.91594 | 21522 ft | 447 kts | 312° |
| 2026-05-05 20:13 | -20.21822 | 56.89158 | 22053 ft | 450 kts | 312° |
| 2026-05-05 20:13 | -20.19687 | 56.86708 | 22525 ft | 454 kts | 312° |
| 2026-05-05 20:14 | -20.17528 | 56.84229 | 23003 ft | 457 kts | 313° |
| 2026-05-05 20:14 | -20.15357 | 56.81739 | 23459 ft | 461 kts | 312° |
| 2026-05-05 20:14 | -20.13167 | 56.79226 | 23879 ft | 463 kts | 312° |
| 2026-05-05 20:14 | -20.10975 | 56.76713 | 24339 ft | 464 kts | 312° |
| 2026-05-05 20:15 | -20.08781 | 56.74197 | 24769 ft | 465 kts | 312° |
| 2026-05-05 20:15 | -20.06607 | 56.71707 | 25171 ft | 466 kts | 312° |
| 2026-05-05 20:15 | -20.04396 | 56.69176 | 25549 ft | 468 kts | 311° |
| 2026-05-05 20:15 | -20.02177 | 56.66636 | 25930 ft | 469 kts | 311° |
| 2026-05-05 20:16 | -19.99952 | 56.64091 | 26328 ft | 470 kts | 311° |
| 2026-05-05 20:16 | -19.97725 | 56.61544 | 26701 ft | 471 kts | 311° |
| 2026-05-05 20:16 | -19.95486 | 56.58984 | 27027 ft | 474 kts | 311° |
| 2026-05-05 20:16 | -19.93238 | 56.56416 | 27354 ft | 476 kts | 311° |
| 2026-05-05 20:17 | -19.90981 | 56.53838 | 27659 ft | 478 kts | 311° |
| 2026-05-05 20:17 | -19.88710 | 56.51246 | 27985 ft | 479 kts | 311° |
| 2026-05-05 20:17 | -19.86437 | 56.48653 | 28282 ft | 481 kts | 311° |
| 2026-05-05 20:17 | -19.84156 | 56.46051 | 28627 ft | 481 kts | 311° |
| 2026-05-05 20:18 | -19.81873 | 56.43450 | 28963 ft | 482 kts | 311° |
| 2026-05-05 20:18 | -19.79588 | 56.40846 | 29242 ft | 483 kts | 311° |
| 2026-05-05 20:18 | -19.77296 | 56.38235 | 29479 ft | 484 kts | 311° |
| 2026-05-05 20:18 | -19.74994 | 56.35615 | 29708 ft | 486 kts | 311° |
| 2026-05-05 20:19 | -19.72685 | 56.32987 | 29914 ft | 488 kts | 311° |
| 2026-05-05 20:19 | -19.70370 | 56.30353 | 30132 ft | 489 kts | 311° |
| 2026-05-05 20:19 | -19.68050 | 56.27716 | 30365 ft | 488 kts | 311° |
| 2026-05-05 20:19 | -19.65737 | 56.25089 | 30640 ft | 487 kts | 311° |
| 2026-05-05 20:20 | -19.63431 | 56.22470 | 30909 ft | 485 kts | 311° |
| 2026-05-05 20:20 | -19.61129 | 56.19858 | 31161 ft | 484 kts | 311° |
| 2026-05-05 20:20 | -19.58829 | 56.17247 | 31397 ft | 484 kts | 311° |
| 2026-05-05 20:20 | -19.56532 | 56.14642 | 31622 ft | 483 kts | 311° |
| 2026-05-05 20:21 | -19.54240 | 56.12043 | 31856 ft | 482 kts | 311° |
| 2026-05-05 20:21 | -19.51947 | 56.09444 | 31969 ft | 484 kts | 311° |
| 2026-05-05 20:21 | -19.49645 | 56.06835 | 32019 ft | 484 kts | 311° |
| 2026-05-05 20:22 | -19.45075 | 56.01664 | 32030 ft | 478 kts | 311° |
| 2026-05-05 20:22 | -19.40543 | 55.96539 | 32044 ft | 476 kts | 311° |
| 2026-05-05 20:23 | -19.36016 | 55.91422 | 32051 ft | 476 kts | 311° |
| 2026-05-05 20:23 | -19.31480 | 55.86300 | 32049 ft | 478 kts | 311° |
| 2026-05-05 20:24 | -19.26930 | 55.81166 | 32050 ft | 479 kts | 311° |
| 2026-05-05 20:24 | -19.22392 | 55.76051 | 32042 ft | 480 kts | 311° |
| 2026-05-05 20:25 | -19.17820 | 55.70903 | 32043 ft | 480 kts | 311° |
| 2026-05-05 20:25 | -19.13240 | 55.65749 | 32047 ft | 481 kts | 311° |
| 2026-05-05 20:26 | -19.08665 | 55.60604 | 32047 ft | 479 kts | 311° |
| 2026-05-05 20:26 | -19.04102 | 55.55478 | 32045 ft | 478 kts | 310° |
| 2026-05-05 20:27 | -18.99971 | 55.50036 | 32042 ft | 474 kts | 303° |
| 2026-05-05 20:27 | -18.96283 | 55.44268 | 32043 ft | 474 kts | 302° |
| 2026-05-05 20:28 | -18.92572 | 55.38501 | 32045 ft | 475 kts | 302° |
| 2026-05-05 20:28 | -18.88781 | 55.32780 | 32040 ft | 476 kts | 303° |
| 2026-05-05 20:29 | -18.84975 | 55.27108 | 32040 ft | 476 kts | 303° |
| 2026-05-05 20:29 | -18.81137 | 55.21398 | 32044 ft | 477 kts | 303° |
| 2026-05-05 20:30 | -18.77299 | 55.15686 | 32041 ft | 478 kts | 303° |
| 2026-05-05 20:30 | -18.73454 | 55.09964 | 32041 ft | 478 kts | 303° |
| 2026-05-05 20:31 | -18.69611 | 55.04252 | 32039 ft | 476 kts | 303° |
| 2026-05-05 20:31 | -18.65780 | 54.98562 | 32033 ft | 475 kts | 303° |
| 2026-05-05 20:32 | -18.61959 | 54.92892 | 32036 ft | 474 kts | 303° |
| 2026-05-05 20:32 | -18.58142 | 54.87232 | 32038 ft | 474 kts | 303° |
| 2026-05-05 20:33 | -18.54321 | 54.81570 | 32037 ft | 474 kts | 303° |
| 2026-05-05 20:33 | -18.50498 | 54.75910 | 32038 ft | 474 kts | 303° |
| 2026-05-05 20:34 | -18.46666 | 54.70243 | 32033 ft | 475 kts | 303° |
| 2026-05-05 20:34 | -18.42829 | 54.64568 | 32037 ft | 476 kts | 303° |
| 2026-05-05 20:35 | -18.38983 | 54.58884 | 32036 ft | 477 kts | 303° |
| 2026-05-05 20:35 | -18.35132 | 54.53196 | 32036 ft | 477 kts | 303° |
| 2026-05-05 20:36 | -18.31279 | 54.47511 | 32022 ft | 477 kts | 303° |
| 2026-05-05 20:36 | -18.28077 | 54.42790 | 32033 ft | 476 kts | 303° |
| 2026-05-05 20:37 | -18.23612 | 54.36212 | 32033 ft | 475 kts | 303° |
| 2026-05-05 20:37 | -18.20398 | 54.31481 | 32033 ft | 474 kts | 303° |
| 2026-05-05 20:38 | -18.16592 | 54.25882 | 32030 ft | 473 kts | 303° |
| 2026-05-05 20:38 | -18.12760 | 54.20249 | 32034 ft | 474 kts | 303° |
| 2026-05-05 20:39 | -18.08923 | 54.14616 | 32038 ft | 474 kts | 303° |
| 2026-05-05 20:39 | -18.05069 | 54.08975 | 32029 ft | 475 kts | 303° |
| 2026-05-05 20:40 | -18.01211 | 54.03333 | 32034 ft | 476 kts | 303° |
| 2026-05-05 20:40 | -17.97350 | 53.97691 | 32026 ft | 476 kts | 303° |
| 2026-05-05 20:41 | -17.93483 | 53.92043 | 32033 ft | 476 kts | 303° |
| 2026-05-05 20:41 | -17.89613 | 53.86394 | 32032 ft | 477 kts | 303° |
| 2026-05-05 20:42 | -17.85743 | 53.80750 | 32030 ft | 476 kts | 303° |
| 2026-05-05 20:42 | -17.81874 | 53.75113 | 32033 ft | 475 kts | 303° |
| 2026-05-05 20:43 | -17.78036 | 53.69525 | 32031 ft | 475 kts | 303° |
| 2026-05-05 20:43 | -17.74169 | 53.63901 | 32030 ft | 475 kts | 303° |
| 2026-05-05 20:44 | -17.70294 | 53.58269 | 32046 ft | 476 kts | 303° |
| 2026-05-05 20:44 | -17.66419 | 53.52641 | 32029 ft | 476 kts | 303° |
| 2026-05-05 20:45 | -17.60601 | 53.44202 | 32033 ft | 476 kts | 303° |
| 2026-05-05 20:45 | -17.56718 | 53.38576 | 32030 ft | 476 kts | 303° |
| 2026-05-05 20:46 | -17.52838 | 53.32958 | 32031 ft | 476 kts | 303° |
| 2026-05-05 20:46 | -17.48950 | 53.27333 | 32028 ft | 476 kts | 303° |
| 2026-05-05 20:47 | -17.45065 | 53.21718 | 32026 ft | 476 kts | 303° |
| 2026-05-05 20:47 | -17.41204 | 53.16141 | 32026 ft | 476 kts | 303° |
| 2026-05-05 20:48 | -17.37311 | 53.10523 | 32043 ft | 477 kts | 303° |
| 2026-05-05 20:48 | -17.33416 | 53.04908 | 32027 ft | 477 kts | 303° |
| 2026-05-05 20:49 | -17.29520 | 52.99295 | 32018 ft | 477 kts | 303° |
| 2026-05-05 20:49 | -17.25620 | 52.93681 | 32030 ft | 477 kts | 303° |
| 2026-05-05 20:50 | -17.21713 | 52.88061 | 32032 ft | 477 kts | 303° |
| 2026-05-05 20:50 | -17.17805 | 52.82444 | 32033 ft | 477 kts | 303° |
| 2026-05-05 20:51 | -17.13894 | 52.76829 | 32031 ft | 478 kts | 303° |
| 2026-05-05 20:51 | -17.09979 | 52.71211 | 32026 ft | 478 kts | 303° |
| 2026-05-05 20:52 | -17.06066 | 52.65601 | 32024 ft | 478 kts | 303° |
| 2026-05-05 20:52 | -17.02152 | 52.59994 | 32021 ft | 477 kts | 303° |
| 2026-05-05 20:53 | -16.98264 | 52.54429 | 32016 ft | 477 kts | 303° |
| 2026-05-05 20:53 | -16.94348 | 52.48828 | 32020 ft | 477 kts | 303° |
| 2026-05-05 20:54 | -16.90433 | 52.43232 | 32024 ft | 477 kts | 303° |
| 2026-05-05 20:54 | -16.86515 | 52.37635 | 32019 ft | 477 kts | 303° |
| 2026-05-05 20:55 | -16.82594 | 52.32041 | 32024 ft | 477 kts | 303° |
| 2026-05-05 20:55 | -16.78670 | 52.26450 | 32019 ft | 478 kts | 303° |
| 2026-05-05 20:56 | -16.74743 | 52.20855 | 32022 ft | 478 kts | 303° |
| 2026-05-05 20:56 | -16.70839 | 52.15296 | 32020 ft | 478 kts | 303° |
| 2026-05-05 20:57 | -16.66908 | 52.09702 | 32019 ft | 478 kts | 303° |
| 2026-05-05 20:57 | -16.62980 | 52.04117 | 32018 ft | 477 kts | 303° |
| 2026-05-05 20:58 | -16.59058 | 51.98545 | 32022 ft | 477 kts | 303° |
| 2026-05-05 20:58 | -16.55132 | 51.92972 | 32022 ft | 477 kts | 303° |
| 2026-05-05 20:59 | -16.51205 | 51.87402 | 32021 ft | 477 kts | 303° |
| 2026-05-05 20:59 | -16.47275 | 51.81832 | 32022 ft | 477 kts | 303° |
| 2026-05-05 21:00 | -16.43343 | 51.76262 | 32020 ft | 477 kts | 303° |
| 2026-05-05 21:00 | -16.39407 | 51.70692 | 32027 ft | 478 kts | 303° |
| 2026-05-05 21:01 | -16.35467 | 51.65121 | 32019 ft | 478 kts | 303° |
| 2026-05-05 21:01 | -16.31520 | 51.59545 | 32020 ft | 478 kts | 303° |
| 2026-05-05 21:02 | -16.27574 | 51.53973 | 32012 ft | 478 kts | 303° |
| 2026-05-05 21:02 | -16.23623 | 51.48400 | 32023 ft | 479 kts | 303° |
| 2026-05-05 21:03 | -16.19668 | 51.42824 | 32017 ft | 479 kts | 303° |
| 2026-05-05 21:03 | -16.15711 | 51.37250 | 32015 ft | 479 kts | 303° |
| 2026-05-05 21:04 | -16.11750 | 51.31675 | 32013 ft | 479 kts | 303° |
| 2026-05-05 21:04 | -16.07787 | 51.26102 | 32019 ft | 479 kts | 303° |
| 2026-05-05 21:05 | -16.03821 | 51.20529 | 32014 ft | 480 kts | 303° |
| 2026-05-05 21:05 | -15.99851 | 51.14954 | 32021 ft | 480 kts | 303° |
| 2026-05-05 21:06 | -15.95906 | 51.09418 | 32020 ft | 480 kts | 303° |
| 2026-05-05 21:06 | -15.91933 | 51.03847 | 32022 ft | 480 kts | 303° |
| 2026-05-05 21:07 | -15.87961 | 50.98282 | 32021 ft | 479 kts | 303° |
| 2026-05-05 21:07 | -15.83988 | 50.92719 | 32024 ft | 479 kts | 303° |
| 2026-05-05 21:08 | -15.80016 | 50.87162 | 32016 ft | 479 kts | 303° |
| 2026-05-05 21:08 | -15.76041 | 50.81605 | 32024 ft | 479 kts | 303° |
| 2026-05-05 21:09 | -15.72066 | 50.76053 | 32026 ft | 479 kts | 304° |
| 2026-05-05 21:09 | -15.68086 | 50.70497 | 32024 ft | 480 kts | 304° |
| 2026-05-05 21:10 | -15.64107 | 50.64947 | 32027 ft | 480 kts | 304° |
| 2026-05-05 21:10 | -15.60124 | 50.59395 | 32033 ft | 480 kts | 304° |
| 2026-05-05 21:11 | -15.56137 | 50.53842 | 32033 ft | 480 kts | 304° |
| 2026-05-05 21:11 | -15.52149 | 50.48292 | 32032 ft | 480 kts | 304° |
| 2026-05-05 21:12 | -15.48158 | 50.42741 | 32033 ft | 480 kts | 304° |
| 2026-05-05 21:12 | -15.44168 | 50.37196 | 32042 ft | 480 kts | 304° |
| 2026-05-05 21:13 | -15.40173 | 50.31649 | 32045 ft | 480 kts | 304° |
| 2026-05-05 21:13 | -15.36176 | 50.26102 | 32054 ft | 480 kts | 304° |
| 2026-05-05 21:14 | -15.32177 | 50.20556 | 32054 ft | 481 kts | 304° |
| 2026-05-05 21:14 | -15.28175 | 50.15010 | 32056 ft | 480 kts | 304° |
| 2026-05-05 21:15 | -15.24171 | 50.09467 | 32064 ft | 481 kts | 304° |
| 2026-05-05 21:15 | -15.20166 | 50.03923 | 32061 ft | 481 kts | 304° |